sensor_id;sensor_type;location;lat;lon;timestamp;P1;durP1;ratioP1;P2;durP2;ratioP2
36715;SDS011;22699;51.034;3.730;2023-05-25T00:01:35;11.95;;;4.22;;
36715;SDS011;22699;51.034;3.730;2023-05-25T00:04:01;8.82;;;4.07;;
36715;SDS011;22699;51.034;3.730;2023-05-25T00:06:28;10.45;;;4.80;;
36715;SDS011;22699;51.034;3.730;2023-05-25T00:08:55;10.57;;;3.92;;
36715;SDS011;22699;51.034;3.730;2023-05-25T00:11:22;8.98;;;3.60;;
36715;SDS011;22699;51.034;3.730;2023-05-25T00:13:50;8.93;;;3.45;;
36715;SDS011;22699;51.034;3.730;2023-05-25T00:16:16;13.65;;;4.25;;
36715;SDS011;22699;51.034;3.730;2023-05-25T00:18:43;8.88;;;3.95;;
36715;SDS011;22699;51.034;3.730;2023-05-25T00:21:09;9.00;;;3.85;;
36715;SDS011;22699;51.034;3.730;2023-05-25T00:23:35;12.57;;;4.78;;
36715;SDS011;22699;51.034;3.730;2023-05-25T00:26:01;9.25;;;4.03;;
36715;SDS011;22699;51.034;3.730;2023-05-25T00:28:27;11.05;;;4.78;;
36715;SDS011;22699;51.034;3.730;2023-05-25T00:30:53;8.98;;;4.43;;
36715;SDS011;22699;51.034;3.730;2023-05-25T00:33:19;11.57;;;4.55;;
36715;SDS011;22699;51.034;3.730;2023-05-25T00:35:45;12.18;;;4.53;;
36715;SDS011;22699;51.034;3.730;2023-05-25T00:38:13;13.10;;;4.57;;
36715;SDS011;22699;51.034;3.730;2023-05-25T00:40:41;10.50;;;4.10;;
36715;SDS011;22699;51.034;3.730;2023-05-25T00:43:07;9.73;;;4.25;;
36715;SDS011;22699;51.034;3.730;2023-05-25T00:45:34;8.07;;;3.90;;
36715;SDS011;22699;51.034;3.730;2023-05-25T00:48:00;10.18;;;4.00;;
36715;SDS011;22699;51.034;3.730;2023-05-25T00:50:39;11.18;;;4.10;;
36715;SDS011;22699;51.034;3.730;2023-05-25T00:53:06;10.88;;;4.20;;
36715;SDS011;22699;51.034;3.730;2023-05-25T00:55:34;8.57;;;4.40;;
36715;SDS011;22699;51.034;3.730;2023-05-25T00:58:10;10.20;;;4.40;;
36715;SDS011;22699;51.034;3.730;2023-05-25T01:00:39;11.88;;;4.82;;
36715;SDS011;22699;51.034;3.730;2023-05-25T01:05:37;9.32;;;4.35;;
36715;SDS011;22699;51.034;3.730;2023-05-25T01:08:06;10.93;;;4.47;;
36715;SDS011;22699;51.034;3.730;2023-05-25T01:13:16;9.82;;;4.53;;
36715;SDS011;22699;51.034;3.730;2023-05-25T01:15:44;9.73;;;5.10;;
36715;SDS011;22699;51.034;3.730;2023-05-25T01:18:13;10.32;;;4.50;;
36715;SDS011;22699;51.034;3.730;2023-05-25T01:23:37;12.70;;;5.70;;
36715;SDS011;22699;51.034;3.730;2023-05-25T01:26:12;12.27;;;5.18;;
36715;SDS011;22699;51.034;3.730;2023-05-25T01:28:41;12.10;;;4.28;;
36715;SDS011;22699;51.034;3.730;2023-05-25T01:31:14;13.82;;;5.15;;
36715;SDS011;22699;51.034;3.730;2023-05-25T01:33:41;12.05;;;5.20;;
36715;SDS011;22699;51.034;3.730;2023-05-25T01:36:07;14.25;;;5.53;;
36715;SDS011;22699;51.034;3.730;2023-05-25T01:38:33;12.10;;;5.57;;
36715;SDS011;22699;51.034;3.730;2023-05-25T01:41:03;9.00;;;4.88;;
36715;SDS011;22699;51.034;3.730;2023-05-25T01:43:28;11.95;;;5.45;;
36715;SDS011;22699;51.034;3.730;2023-05-25T01:45:57;10.55;;;5.28;;
36715;SDS011;22699;51.034;3.730;2023-05-25T01:48:59;11.05;;;5.38;;
36715;SDS011;22699;51.034;3.730;2023-05-25T01:54:55;13.38;;;5.60;;
36715;SDS011;22699;51.034;3.730;2023-05-25T01:57:26;13.90;;;6.47;;
36715;SDS011;22699;51.034;3.730;2023-05-25T01:59:57;14.18;;;6.00;;
36715;SDS011;22699;51.034;3.730;2023-05-25T02:02:27;15.32;;;6.38;;
36715;SDS011;22699;51.034;3.730;2023-05-25T02:05:15;12.52;;;6.10;;
36715;SDS011;22699;51.034;3.730;2023-05-25T02:07:44;13.32;;;6.05;;
36715;SDS011;22699;51.034;3.730;2023-05-25T02:10:09;13.25;;;6.15;;
36715;SDS011;22699;51.034;3.730;2023-05-25T02:12:35;15.55;;;6.22;;
36715;SDS011;22699;51.034;3.730;2023-05-25T02:15:01;15.23;;;6.68;;
36715;SDS011;22699;51.034;3.730;2023-05-25T02:17:27;14.80;;;6.38;;
36715;SDS011;22699;51.034;3.730;2023-05-25T02:19:54;14.10;;;6.35;;
36715;SDS011;22699;51.034;3.730;2023-05-25T02:22:24;14.95;;;6.80;;
36715;SDS011;22699;51.034;3.730;2023-05-25T02:24:49;16.02;;;6.53;;
36715;SDS011;22699;51.034;3.730;2023-05-25T02:27:15;16.02;;;6.35;;
36715;SDS011;22699;51.034;3.730;2023-05-25T02:29:41;16.55;;;7.00;;
36715;SDS011;22699;51.034;3.730;2023-05-25T02:32:10;11.95;;;6.90;;
36715;SDS011;22699;51.034;3.730;2023-05-25T02:34:35;15.68;;;7.35;;
36715;SDS011;22699;51.034;3.730;2023-05-25T02:37:12;18.75;;;7.55;;
36715;SDS011;22699;51.034;3.730;2023-05-25T02:39:44;11.38;;;6.85;;
36715;SDS011;22699;51.034;3.730;2023-05-25T02:44:38;21.83;;;7.55;;
36715;SDS011;22699;51.034;3.730;2023-05-25T02:47:05;19.73;;;7.22;;
36715;SDS011;22699;51.034;3.730;2023-05-25T02:49:32;15.02;;;7.07;;
36715;SDS011;22699;51.034;3.730;2023-05-25T02:52:05;16.23;;;7.07;;
36715;SDS011;22699;51.034;3.730;2023-05-25T02:54:40;15.57;;;7.28;;
36715;SDS011;22699;51.034;3.730;2023-05-25T02:57:09;17.70;;;7.57;;
36715;SDS011;22699;51.034;3.730;2023-05-25T02:59:40;14.13;;;7.22;;
36715;SDS011;22699;51.034;3.730;2023-05-25T03:02:05;21.70;;;7.05;;
36715;SDS011;22699;51.034;3.730;2023-05-25T03:04:32;20.10;;;7.72;;
36715;SDS011;22699;51.034;3.730;2023-05-25T03:07:04;18.90;;;7.68;;
36715;SDS011;22699;51.034;3.730;2023-05-25T03:09:30;13.15;;;7.05;;
36715;SDS011;22699;51.034;3.730;2023-05-25T03:14:34;23.60;;;7.20;;
36715;SDS011;22699;51.034;3.730;2023-05-25T03:17:00;21.75;;;8.32;;
36715;SDS011;22699;51.034;3.730;2023-05-25T03:19:29;18.35;;;7.80;;
36715;SDS011;22699;51.034;3.730;2023-05-25T03:21:56;19.02;;;7.97;;
36715;SDS011;22699;51.034;3.730;2023-05-25T03:24:22;21.38;;;7.88;;
36715;SDS011;22699;51.034;3.730;2023-05-25T03:26:48;18.45;;;7.85;;
36715;SDS011;22699;51.034;3.730;2023-05-25T03:29:13;17.92;;;8.25;;
36715;SDS011;22699;51.034;3.730;2023-05-25T03:31:42;21.33;;;9.45;;
36715;SDS011;22699;51.034;3.730;2023-05-25T03:34:07;21.60;;;7.85;;
36715;SDS011;22699;51.034;3.730;2023-05-25T03:36:33;19.95;;;8.25;;
36715;SDS011;22699;51.034;3.730;2023-05-25T03:38:59;17.08;;;7.93;;
36715;SDS011;22699;51.034;3.730;2023-05-25T03:41:25;16.15;;;7.95;;
36715;SDS011;22699;51.034;3.730;2023-05-25T03:43:51;25.85;;;11.05;;
36715;SDS011;22699;51.034;3.730;2023-05-25T03:46:16;21.42;;;8.00;;
36715;SDS011;22699;51.034;3.730;2023-05-25T03:48:42;18.05;;;8.48;;
36715;SDS011;22699;51.034;3.730;2023-05-25T03:51:07;17.50;;;9.40;;
36715;SDS011;22699;51.034;3.730;2023-05-25T03:53:33;17.30;;;8.45;;
36715;SDS011;22699;51.034;3.730;2023-05-25T03:55:58;20.60;;;8.70;;
36715;SDS011;22699;51.034;3.730;2023-05-25T03:58:27;19.00;;;9.40;;
36715;SDS011;22699;51.034;3.730;2023-05-25T04:00:53;18.38;;;8.90;;
36715;SDS011;22699;51.034;3.730;2023-05-25T04:03:20;19.52;;;8.90;;
36715;SDS011;22699;51.034;3.730;2023-05-25T04:05:46;17.88;;;8.18;;
36715;SDS011;22699;51.034;3.730;2023-05-25T04:08:27;17.73;;;8.98;;
36715;SDS011;22699;51.034;3.730;2023-05-25T04:10:53;19.17;;;8.07;;
36715;SDS011;22699;51.034;3.730;2023-05-25T04:13:18;43.40;;;11.88;;
36715;SDS011;22699;51.034;3.730;2023-05-25T04:15:44;15.57;;;8.45;;
36715;SDS011;22699;51.034;3.730;2023-05-25T04:18:12;17.45;;;8.60;;
36715;SDS011;22699;51.034;3.730;2023-05-25T04:20:44;13.18;;;7.40;;
36715;SDS011;22699;51.034;3.730;2023-05-25T04:23:10;15.50;;;8.05;;
36715;SDS011;22699;51.034;3.730;2023-05-25T04:25:36;18.45;;;8.63;;
36715;SDS011;22699;51.034;3.730;2023-05-25T04:28:02;16.73;;;8.20;;
36715;SDS011;22699;51.034;3.730;2023-05-25T04:30:28;17.30;;;8.35;;
36715;SDS011;22699;51.034;3.730;2023-05-25T04:32:55;16.25;;;8.15;;
36715;SDS011;22699;51.034;3.730;2023-05-25T04:35:21;19.15;;;8.70;;
36715;SDS011;22699;51.034;3.730;2023-05-25T04:37:47;15.43;;;8.40;;
36715;SDS011;22699;51.034;3.730;2023-05-25T04:40:14;18.85;;;7.82;;
36715;SDS011;22699;51.034;3.730;2023-05-25T04:42:41;19.48;;;9.23;;
36715;SDS011;22699;51.034;3.730;2023-05-25T04:45:07;16.35;;;8.05;;
36715;SDS011;22699;51.034;3.730;2023-05-25T04:47:34;16.15;;;8.60;;
36715;SDS011;22699;51.034;3.730;2023-05-25T04:50:01;26.58;;;9.15;;
36715;SDS011;22699;51.034;3.730;2023-05-25T04:52:29;17.80;;;8.35;;
36715;SDS011;22699;51.034;3.730;2023-05-25T04:54:54;17.30;;;8.77;;
36715;SDS011;22699;51.034;3.730;2023-05-25T04:57:22;15.32;;;8.55;;
36715;SDS011;22699;51.034;3.730;2023-05-25T04:59:51;14.73;;;7.35;;
36715;SDS011;22699;51.034;3.730;2023-05-25T05:02:16;17.30;;;8.32;;
36715;SDS011;22699;51.034;3.730;2023-05-25T05:04:46;18.08;;;9.52;;
36715;SDS011;22699;51.034;3.730;2023-05-25T05:07:15;19.13;;;9.13;;
36715;SDS011;22699;51.034;3.730;2023-05-25T05:09:42;14.75;;;8.15;;
36715;SDS011;22699;51.034;3.730;2023-05-25T05:12:08;17.40;;;8.55;;
36715;SDS011;22699;51.034;3.730;2023-05-25T05:14:34;17.33;;;9.15;;
36715;SDS011;22699;51.034;3.730;2023-05-25T05:17:03;14.35;;;8.30;;
36715;SDS011;22699;51.034;3.730;2023-05-25T05:19:30;16.13;;;8.30;;
36715;SDS011;22699;51.034;3.730;2023-05-25T05:21:57;14.70;;;9.20;;
36715;SDS011;22699;51.034;3.730;2023-05-25T05:24:22;20.05;;;9.20;;
36715;SDS011;22699;51.034;3.730;2023-05-25T05:26:48;52.42;;;18.40;;
36715;SDS011;22699;51.034;3.730;2023-05-25T05:29:14;20.42;;;8.95;;
36715;SDS011;22699;51.034;3.730;2023-05-25T05:31:41;21.80;;;9.07;;
36715;SDS011;22699;51.034;3.730;2023-05-25T05:34:06;22.55;;;9.52;;
36715;SDS011;22699;51.034;3.730;2023-05-25T05:36:34;17.38;;;8.85;;
36715;SDS011;22699;51.034;3.730;2023-05-25T05:39:08;20.80;;;8.70;;
36715;SDS011;22699;51.034;3.730;2023-05-25T05:41:39;19.83;;;9.30;;
36715;SDS011;22699;51.034;3.730;2023-05-25T05:44:08;19.95;;;10.27;;
36715;SDS011;22699;51.034;3.730;2023-05-25T05:46:36;16.25;;;8.77;;
36715;SDS011;22699;51.034;3.730;2023-05-25T05:52:12;12.25;;;7.70;;
36715;SDS011;22699;51.034;3.730;2023-05-25T05:54:43;13.95;;;7.75;;
36715;SDS011;22699;51.034;3.730;2023-05-25T05:57:12;17.20;;;8.30;;
36715;SDS011;22699;51.034;3.730;2023-05-25T05:59:50;13.52;;;6.85;;
36715;SDS011;22699;51.034;3.730;2023-05-25T06:02:16;16.30;;;8.20;;
36715;SDS011;22699;51.034;3.730;2023-05-25T06:04:43;16.50;;;8.40;;
36715;SDS011;22699;51.034;3.730;2023-05-25T06:07:18;14.32;;;7.20;;
36715;SDS011;22699;51.034;3.730;2023-05-25T06:09:53;17.13;;;8.68;;
36715;SDS011;22699;51.034;3.730;2023-05-25T06:12:30;17.77;;;7.95;;
36715;SDS011;22699;51.034;3.730;2023-05-25T06:15:02;17.73;;;7.05;;
36715;SDS011;22699;51.034;3.730;2023-05-25T06:17:31;20.45;;;9.07;;
36715;SDS011;22699;51.034;3.730;2023-05-25T06:22:35;13.50;;;6.97;;
36715;SDS011;22699;51.034;3.730;2023-05-25T06:28:05;11.35;;;6.50;;
36715;SDS011;22699;51.034;3.730;2023-05-25T06:30:31;11.10;;;6.38;;
36715;SDS011;22699;51.034;3.730;2023-05-25T06:33:02;13.38;;;7.55;;
36715;SDS011;22699;51.034;3.730;2023-05-25T06:35:28;13.65;;;6.95;;
36715;SDS011;22699;51.034;3.730;2023-05-25T06:37:54;14.68;;;7.05;;
36715;SDS011;22699;51.034;3.730;2023-05-25T06:43:28;15.38;;;6.07;;
36715;SDS011;22699;51.034;3.730;2023-05-25T06:48:43;12.90;;;6.53;;
36715;SDS011;22699;51.034;3.730;2023-05-25T06:51:19;14.30;;;6.72;;
36715;SDS011;22699;51.034;3.730;2023-05-25T06:53:45;15.00;;;7.30;;
36715;SDS011;22699;51.034;3.730;2023-05-25T06:56:13;17.30;;;7.72;;
36715;SDS011;22699;51.034;3.730;2023-05-25T06:58:40;12.02;;;6.97;;
36715;SDS011;22699;51.034;3.730;2023-05-25T07:01:05;13.82;;;6.80;;
36715;SDS011;22699;51.034;3.730;2023-05-25T07:03:32;12.77;;;6.57;;
36715;SDS011;22699;51.034;3.730;2023-05-25T07:05:58;19.48;;;7.00;;
36715;SDS011;22699;51.034;3.730;2023-05-25T07:08:28;13.07;;;7.13;;
36715;SDS011;22699;51.034;3.730;2023-05-25T07:10:56;19.20;;;7.97;;
36715;SDS011;22699;51.034;3.730;2023-05-25T07:13:23;16.60;;;6.78;;
36715;SDS011;22699;51.034;3.730;2023-05-25T07:15:53;14.20;;;5.78;;
36715;SDS011;22699;51.034;3.730;2023-05-25T07:18:21;11.38;;;6.45;;
36715;SDS011;22699;51.034;3.730;2023-05-25T07:20:49;12.23;;;5.70;;
36715;SDS011;22699;51.034;3.730;2023-05-25T07:23:15;15.50;;;5.82;;
36715;SDS011;22699;51.034;3.730;2023-05-25T07:25:41;10.68;;;4.95;;
36715;SDS011;22699;51.034;3.730;2023-05-25T07:28:08;14.85;;;4.85;;
36715;SDS011;22699;51.034;3.730;2023-05-25T07:30:37;11.40;;;4.72;;
36715;SDS011;22699;51.034;3.730;2023-05-25T07:33:06;9.02;;;3.92;;
36715;SDS011;22699;51.034;3.730;2023-05-25T07:35:32;13.43;;;5.05;;
36715;SDS011;22699;51.034;3.730;2023-05-25T07:38:02;7.13;;;4.32;;
36715;SDS011;22699;51.034;3.730;2023-05-25T07:40:30;15.77;;;4.85;;
36715;SDS011;22699;51.034;3.730;2023-05-25T07:42:57;7.40;;;3.53;;
36715;SDS011;22699;51.034;3.730;2023-05-25T07:45:24;6.82;;;4.13;;
36715;SDS011;22699;51.034;3.730;2023-05-25T07:47:50;13.10;;;4.82;;
36715;SDS011;22699;51.034;3.730;2023-05-25T07:50:16;9.02;;;4.05;;
36715;SDS011;22699;51.034;3.730;2023-05-25T07:52:42;14.20;;;5.35;;
36715;SDS011;22699;51.034;3.730;2023-05-25T07:55:08;11.93;;;6.43;;
36715;SDS011;22699;51.034;3.730;2023-05-25T07:57:34;8.57;;;4.43;;
36715;SDS011;22699;51.034;3.730;2023-05-25T08:00:00;10.65;;;4.20;;
36715;SDS011;22699;51.034;3.730;2023-05-25T08:02:25;6.93;;;3.78;;
36715;SDS011;22699;51.034;3.730;2023-05-25T08:04:52;8.48;;;4.28;;
36715;SDS011;22699;51.034;3.730;2023-05-25T08:07:18;7.35;;;4.63;;
36715;SDS011;22699;51.034;3.730;2023-05-25T08:09:44;7.72;;;4.45;;
36715;SDS011;22699;51.034;3.730;2023-05-25T08:12:11;9.68;;;5.28;;
36715;SDS011;22699;51.034;3.730;2023-05-25T08:14:37;7.85;;;4.15;;
36715;SDS011;22699;51.034;3.730;2023-05-25T08:17:02;5.53;;;3.58;;
36715;SDS011;22699;51.034;3.730;2023-05-25T08:19:29;12.75;;;3.85;;
36715;SDS011;22699;51.034;3.730;2023-05-25T08:21:57;8.18;;;3.75;;
36715;SDS011;22699;51.034;3.730;2023-05-25T08:24:23;7.72;;;3.85;;
36715;SDS011;22699;51.034;3.730;2023-05-25T08:26:49;8.15;;;3.30;;
36715;SDS011;22699;51.034;3.730;2023-05-25T08:29:15;9.18;;;4.55;;
36715;SDS011;22699;51.034;3.730;2023-05-25T08:31:40;8.90;;;3.85;;
36715;SDS011;22699;51.034;3.730;2023-05-25T08:34:08;8.18;;;3.50;;
36715;SDS011;22699;51.034;3.730;2023-05-25T08:36:33;6.35;;;3.50;;
36715;SDS011;22699;51.034;3.730;2023-05-25T08:39:03;4.88;;;2.92;;
36715;SDS011;22699;51.034;3.730;2023-05-25T08:41:28;7.68;;;3.40;;
36715;SDS011;22699;51.034;3.730;2023-05-25T08:43:55;7.88;;;3.03;;
36715;SDS011;22699;51.034;3.730;2023-05-25T08:46:27;8.15;;;3.30;;
36715;SDS011;22699;51.034;3.730;2023-05-25T08:49:10;9.70;;;4.80;;
36715;SDS011;22699;51.034;3.730;2023-05-25T08:51:37;6.90;;;2.97;;
36715;SDS011;22699;51.034;3.730;2023-05-25T08:54:11;4.25;;;2.13;;
36715;SDS011;22699;51.034;3.730;2023-05-25T09:01:45;5.07;;;1.95;;
36715;SDS011;22699;51.034;3.730;2023-05-25T09:04:16;6.43;;;1.85;;
36715;SDS011;22699;51.034;3.730;2023-05-25T09:06:44;5.28;;;2.33;;
36715;SDS011;22699;51.034;3.730;2023-05-25T09:09:11;13.68;;;2.28;;
36715;SDS011;22699;51.034;3.730;2023-05-25T09:11:38;18.63;;;2.95;;
36715;SDS011;22699;51.034;3.730;2023-05-25T09:14:06;7.38;;;3.03;;
36715;SDS011;22699;51.034;3.730;2023-05-25T09:16:32;5.18;;;2.13;;
36715;SDS011;22699;51.034;3.730;2023-05-25T09:19:00;5.80;;;2.65;;
36715;SDS011;22699;51.034;3.730;2023-05-25T09:21:26;7.57;;;2.53;;
36715;SDS011;22699;51.034;3.730;2023-05-25T09:23:52;7.47;;;2.80;;
36715;SDS011;22699;51.034;3.730;2023-05-25T09:26:18;8.43;;;3.15;;
36715;SDS011;22699;51.034;3.730;2023-05-25T09:28:44;7.30;;;3.28;;
36715;SDS011;22699;51.034;3.730;2023-05-25T09:31:11;5.35;;;2.58;;
36715;SDS011;22699;51.034;3.730;2023-05-25T09:33:38;5.68;;;2.85;;
36715;SDS011;22699;51.034;3.730;2023-05-25T09:36:05;9.32;;;3.10;;
36715;SDS011;22699;51.034;3.730;2023-05-25T09:38:31;5.80;;;2.45;;
36715;SDS011;22699;51.034;3.730;2023-05-25T09:40:57;6.38;;;2.88;;
36715;SDS011;22699;51.034;3.730;2023-05-25T09:43:25;4.68;;;2.97;;
36715;SDS011;22699;51.034;3.730;2023-05-25T09:45:52;7.10;;;2.65;;
36715;SDS011;22699;51.034;3.730;2023-05-25T09:48:18;5.82;;;2.58;;
36715;SDS011;22699;51.034;3.730;2023-05-25T09:50:47;7.40;;;2.28;;
36715;SDS011;22699;51.034;3.730;2023-05-25T09:53:12;4.13;;;2.03;;
36715;SDS011;22699;51.034;3.730;2023-05-25T09:55:38;6.57;;;2.65;;
36715;SDS011;22699;51.034;3.730;2023-05-25T09:58:05;6.35;;;2.28;;
36715;SDS011;22699;51.034;3.730;2023-05-25T10:00:31;5.15;;;2.55;;
36715;SDS011;22699;51.034;3.730;2023-05-25T10:02:58;5.93;;;2.30;;
36715;SDS011;22699;51.034;3.730;2023-05-25T10:05:26;5.90;;;2.30;;
36715;SDS011;22699;51.034;3.730;2023-05-25T10:07:52;4.03;;;2.40;;
36715;SDS011;22699;51.034;3.730;2023-05-25T10:10:20;6.05;;;2.63;;
36715;SDS011;22699;51.034;3.730;2023-05-25T10:12:48;4.50;;;2.63;;
36715;SDS011;22699;51.034;3.730;2023-05-25T10:15:15;5.22;;;2.08;;
36715;SDS011;22699;51.034;3.730;2023-05-25T10:17:43;5.40;;;2.63;;
36715;SDS011;22699;51.034;3.730;2023-05-25T10:20:24;4.88;;;2.40;;
36715;SDS011;22699;51.034;3.730;2023-05-25T10:25:25;6.78;;;3.15;;
36715;SDS011;22699;51.034;3.730;2023-05-25T10:28:13;4.88;;;2.92;;
36715;SDS011;22699;51.034;3.730;2023-05-25T10:30:48;5.20;;;2.80;;
36715;SDS011;22699;51.034;3.730;2023-05-25T10:38:11;5.13;;;3.20;;
36715;SDS011;22699;51.034;3.730;2023-05-25T10:40:43;6.88;;;3.60;;
36715;SDS011;22699;51.034;3.730;2023-05-25T10:43:19;6.10;;;3.17;;
36715;SDS011;22699;51.034;3.730;2023-05-25T10:45:53;6.47;;;2.45;;
36715;SDS011;22699;51.034;3.730;2023-05-25T10:48:44;6.93;;;3.28;;
36715;SDS011;22699;51.034;3.730;2023-05-25T10:51:11;7.70;;;2.95;;
36715;SDS011;22699;51.034;3.730;2023-05-25T10:53:42;8.65;;;3.38;;
36715;SDS011;22699;51.034;3.730;2023-05-25T10:56:13;9.10;;;3.28;;
36715;SDS011;22699;51.034;3.730;2023-05-25T10:58:42;6.90;;;2.80;;
36715;SDS011;22699;51.034;3.730;2023-05-25T11:01:11;6.50;;;2.70;;
36715;SDS011;22699;51.034;3.730;2023-05-25T11:06:17;7.93;;;4.82;;
36715;SDS011;22699;51.034;3.730;2023-05-25T11:12:01;7.80;;;3.67;;
36715;SDS011;22699;51.034;3.730;2023-05-25T11:14:31;6.00;;;3.00;;
36715;SDS011;22699;51.034;3.730;2023-05-25T11:17:04;8.63;;;3.38;;
36715;SDS011;22699;51.034;3.730;2023-05-25T11:24:42;9.02;;;3.58;;
36715;SDS011;22699;51.034;3.730;2023-05-25T11:27:12;7.88;;;3.58;;
36715;SDS011;22699;51.034;3.730;2023-05-25T11:29:40;7.07;;;2.90;;
36715;SDS011;22699;51.034;3.730;2023-05-25T11:32:12;6.20;;;2.70;;
36715;SDS011;22699;51.034;3.730;2023-05-25T11:34:38;6.50;;;2.50;;
36715;SDS011;22699;51.034;3.730;2023-05-25T11:37:10;8.95;;;2.88;;
36715;SDS011;22699;51.034;3.730;2023-05-25T11:39:38;9.48;;;3.08;;
36715;SDS011;22699;51.034;3.730;2023-05-25T11:42:05;6.05;;;2.80;;
36715;SDS011;22699;51.034;3.730;2023-05-25T11:44:32;9.48;;;3.30;;
36715;SDS011;22699;51.034;3.730;2023-05-25T11:47:01;6.57;;;2.97;;
36715;SDS011;22699;51.034;3.730;2023-05-25T11:49:38;7.93;;;3.25;;
36715;SDS011;22699;51.034;3.730;2023-05-25T11:52:05;9.00;;;3.80;;
36715;SDS011;22699;51.034;3.730;2023-05-25T11:54:31;7.75;;;3.15;;
36715;SDS011;22699;51.034;3.730;2023-05-25T11:56:58;9.07;;;3.53;;
36715;SDS011;22699;51.034;3.730;2023-05-25T11:59:26;7.70;;;3.20;;
36715;SDS011;22699;51.034;3.730;2023-05-25T12:01:57;9.88;;;3.78;;
36715;SDS011;22699;51.034;3.730;2023-05-25T12:04:23;7.88;;;3.40;;
36715;SDS011;22699;51.034;3.730;2023-05-25T12:06:50;8.85;;;3.53;;
36715;SDS011;22699;51.034;3.730;2023-05-25T12:09:19;9.43;;;3.80;;
36715;SDS011;22699;51.034;3.730;2023-05-25T12:11:46;10.05;;;3.85;;
36715;SDS011;22699;51.034;3.730;2023-05-25T12:14:12;9.13;;;3.13;;
36715;SDS011;22699;51.034;3.730;2023-05-25T12:16:38;9.55;;;3.50;;
36715;SDS011;22699;51.034;3.730;2023-05-25T12:19:08;7.05;;;3.13;;
36715;SDS011;22699;51.034;3.730;2023-05-25T12:21:35;9.32;;;3.63;;
36715;SDS011;22699;51.034;3.730;2023-05-25T12:24:02;8.65;;;4.13;;
36715;SDS011;22699;51.034;3.730;2023-05-25T12:26:30;9.82;;;3.90;;
36715;SDS011;22699;51.034;3.730;2023-05-25T12:28:57;7.53;;;3.45;;
36715;SDS011;22699;51.034;3.730;2023-05-25T12:31:29;9.15;;;3.97;;
36715;SDS011;22699;51.034;3.730;2023-05-25T12:36:51;7.72;;;3.50;;
36715;SDS011;22699;51.034;3.730;2023-05-25T12:42:03;5.88;;;3.03;;
36715;SDS011;22699;51.034;3.730;2023-05-25T12:44:32;10.27;;;3.42;;
36715;SDS011;22699;51.034;3.730;2023-05-25T12:49:51;12.90;;;3.72;;
36715;SDS011;22699;51.034;3.730;2023-05-25T12:52:33;9.13;;;3.55;;
36715;SDS011;22699;51.034;3.730;2023-05-25T12:57:46;8.18;;;4.03;;
36715;SDS011;22699;51.034;3.730;2023-05-25T13:00:16;13.57;;;4.60;;
36715;SDS011;22699;51.034;3.730;2023-05-25T13:02:45;8.63;;;3.50;;
36715;SDS011;22699;51.034;3.730;2023-05-25T13:07:50;10.00;;;3.65;;
36715;SDS011;22699;51.034;3.730;2023-05-25T13:10:17;10.43;;;3.70;;
36715;SDS011;22699;51.034;3.730;2023-05-25T13:12:47;10.98;;;3.65;;
36715;SDS011;22699;51.034;3.730;2023-05-25T13:15:14;6.70;;;3.22;;
36715;SDS011;22699;51.034;3.730;2023-05-25T13:17:43;8.07;;;3.55;;
36715;SDS011;22699;51.034;3.730;2023-05-25T13:20:12;8.68;;;3.33;;
36715;SDS011;22699;51.034;3.730;2023-05-25T13:22:42;11.90;;;4.03;;
36715;SDS011;22699;51.034;3.730;2023-05-25T13:25:16;12.68;;;3.53;;
36715;SDS011;22699;51.034;3.730;2023-05-25T13:28:00;10.35;;;3.47;;
36715;SDS011;22699;51.034;3.730;2023-05-25T13:30:26;11.27;;;3.58;;
36715;SDS011;22699;51.034;3.730;2023-05-25T13:32:51;8.23;;;3.45;;
36715;SDS011;22699;51.034;3.730;2023-05-25T13:35:17;9.50;;;3.35;;
36715;SDS011;22699;51.034;3.730;2023-05-25T13:37:58;9.63;;;3.65;;
36715;SDS011;22699;51.034;3.730;2023-05-25T13:40:24;6.68;;;3.60;;
36715;SDS011;22699;51.034;3.730;2023-05-25T13:43:02;11.75;;;3.70;;
36715;SDS011;22699;51.034;3.730;2023-05-25T13:45:28;6.85;;;3.72;;
36715;SDS011;22699;51.034;3.730;2023-05-25T13:48:02;11.40;;;4.30;;
36715;SDS011;22699;51.034;3.730;2023-05-25T13:50:30;10.10;;;3.95;;
36715;SDS011;22699;51.034;3.730;2023-05-25T13:52:56;12.07;;;4.15;;
36715;SDS011;22699;51.034;3.730;2023-05-25T13:55:21;9.05;;;3.72;;
36715;SDS011;22699;51.034;3.730;2023-05-25T13:57:54;10.18;;;4.18;;
36715;SDS011;22699;51.034;3.730;2023-05-25T14:00:25;11.43;;;3.75;;
36715;SDS011;22699;51.034;3.730;2023-05-25T14:02:53;10.25;;;4.07;;
36715;SDS011;22699;51.034;3.730;2023-05-25T14:05:19;10.27;;;4.40;;
36715;SDS011;22699;51.034;3.730;2023-05-25T14:07:45;12.20;;;4.13;;
36715;SDS011;22699;51.034;3.730;2023-05-25T14:10:11;11.82;;;5.70;;
36715;SDS011;22699;51.034;3.730;2023-05-25T14:12:39;7.82;;;5.13;;
36715;SDS011;22699;51.034;3.730;2023-05-25T14:15:05;8.45;;;4.47;;
36715;SDS011;22699;51.034;3.730;2023-05-25T14:17:35;10.60;;;4.20;;
36715;SDS011;22699;51.034;3.730;2023-05-25T14:20:01;11.98;;;4.65;;
36715;SDS011;22699;51.034;3.730;2023-05-25T14:22:28;9.10;;;4.05;;
36715;SDS011;22699;51.034;3.730;2023-05-25T14:24:55;8.30;;;3.80;;
36715;SDS011;22699;51.034;3.730;2023-05-25T14:27:21;9.95;;;3.33;;
36715;SDS011;22699;51.034;3.730;2023-05-25T14:30:02;8.13;;;3.95;;
36715;SDS011;22699;51.034;3.730;2023-05-25T14:32:29;12.18;;;5.13;;
36715;SDS011;22699;51.034;3.730;2023-05-25T14:35:04;9.43;;;3.92;;
36715;SDS011;22699;51.034;3.730;2023-05-25T14:37:30;9.25;;;4.47;;
36715;SDS011;22699;51.034;3.730;2023-05-25T14:39:55;10.23;;;4.65;;
36715;SDS011;22699;51.034;3.730;2023-05-25T14:42:22;9.50;;;4.75;;
36715;SDS011;22699;51.034;3.730;2023-05-25T14:44:48;10.60;;;4.47;;
36715;SDS011;22699;51.034;3.730;2023-05-25T14:47:13;9.27;;;4.35;;
36715;SDS011;22699;51.034;3.730;2023-05-25T14:49:39;9.73;;;4.35;;
36715;SDS011;22699;51.034;3.730;2023-05-25T14:52:05;9.18;;;4.13;;
36715;SDS011;22699;51.034;3.730;2023-05-25T14:54:33;7.28;;;3.97;;
36715;SDS011;22699;51.034;3.730;2023-05-25T14:57:00;10.02;;;4.80;;
36715;SDS011;22699;51.034;3.730;2023-05-25T14:59:26;7.28;;;3.58;;
36715;SDS011;22699;51.034;3.730;2023-05-25T15:01:55;12.93;;;4.93;;
36715;SDS011;22699;51.034;3.730;2023-05-25T15:04:21;10.02;;;4.30;;
36715;SDS011;22699;51.034;3.730;2023-05-25T15:06:49;10.95;;;4.63;;
36715;SDS011;22699;51.034;3.730;2023-05-25T15:09:17;11.25;;;5.00;;
36715;SDS011;22699;51.034;3.730;2023-05-25T15:11:43;6.93;;;3.75;;
36715;SDS011;22699;51.034;3.730;2023-05-25T15:14:09;8.32;;;4.68;;
36715;SDS011;22699;51.034;3.730;2023-05-25T15:16:34;5.85;;;3.97;;
36715;SDS011;22699;51.034;3.730;2023-05-25T15:19:00;7.40;;;4.07;;
36715;SDS011;22699;51.034;3.730;2023-05-25T15:21:25;10.13;;;4.45;;
36715;SDS011;22699;51.034;3.730;2023-05-25T15:23:51;8.70;;;4.43;;
36715;SDS011;22699;51.034;3.730;2023-05-25T15:26:17;7.65;;;3.95;;
36715;SDS011;22699;51.034;3.730;2023-05-25T15:28:43;9.35;;;3.65;;
36715;SDS011;22699;51.034;3.730;2023-05-25T15:31:09;7.68;;;4.25;;
36715;SDS011;22699;51.034;3.730;2023-05-25T15:33:38;6.93;;;4.15;;
36715;SDS011;22699;51.034;3.730;2023-05-25T15:36:06;11.23;;;4.60;;
36715;SDS011;22699;51.034;3.730;2023-05-25T15:38:38;10.00;;;3.35;;
36715;SDS011;22699;51.034;3.730;2023-05-25T15:41:07;11.77;;;4.43;;
36715;SDS011;22699;51.034;3.730;2023-05-25T15:43:33;10.13;;;4.35;;
36715;SDS011;22699;51.034;3.730;2023-05-25T15:46:03;6.57;;;4.03;;
36715;SDS011;22699;51.034;3.730;2023-05-25T15:48:29;7.63;;;4.03;;
36715;SDS011;22699;51.034;3.730;2023-05-25T15:50:55;12.75;;;3.67;;
36715;SDS011;22699;51.034;3.730;2023-05-25T15:53:21;6.60;;;3.75;;
36715;SDS011;22699;51.034;3.730;2023-05-25T15:55:48;8.00;;;4.30;;